createdAt,value
2022-08-19T00:01:41.427Z,6.57
2022-08-19T00:04:47.618Z,6.67
2022-08-19T00:07:51.903Z,6.73
2022-08-19T00:10:55.581Z,6.33
2022-08-19T00:14:00.663Z,6.40
2022-08-19T00:17:05.118Z,6.47
2022-08-19T00:20:11.719Z,6.20
2022-08-19T00:23:16.083Z,6.10
2022-08-19T00:26:19.785Z,5.77
2022-08-19T00:29:26.373Z,6.63
2022-08-19T00:32:30.063Z,6.23
2022-08-19T00:35:34.567Z,6.03
2022-08-19T00:38:40.265Z,6.37
2022-08-19T00:41:47.677Z,6.20
2022-08-19T00:44:53.168Z,6.63
2022-08-19T00:47:57.067Z,6.33
2022-08-19T00:51:01.095Z,6.10
2022-08-19T00:54:05.947Z,6.40
2022-08-19T00:57:14.310Z,6.30
2022-08-19T01:00:21.224Z,6.07
2022-08-19T01:03:25.202Z,6.20
2022-08-19T01:06:29.155Z,6.37
2022-08-19T01:09:33.570Z,6.33
2022-08-19T01:12:37.525Z,6.00
2022-08-19T01:15:46.795Z,6.10
2022-08-19T01:18:51.179Z,6.00
2022-08-19T01:22:14.030Z,6.37
2022-08-19T01:25:22.953Z,5.73
2022-08-19T01:28:34.300Z,6.03
2022-08-19T01:31:44.111Z,6.00
2022-08-19T01:34:48.199Z,5.83
2022-08-19T01:37:54.463Z,6.27
2022-08-19T01:40:59.625Z,5.73
2022-08-19T01:44:18.274Z,5.83
2022-08-19T01:47:22.676Z,5.87
2022-08-19T01:50:26.801Z,5.87
2022-08-19T01:53:33.718Z,6.23
2022-08-19T01:56:39.323Z,6.30
2022-08-19T01:59:44.948Z,6.30
2022-08-19T02:02:48.876Z,5.93
2022-08-19T02:05:56.912Z,5.77
2022-08-19T02:09:01.166Z,5.70
2022-08-19T02:12:07.285Z,5.47
2022-08-19T02:15:12.415Z,5.63
2022-08-19T02:18:16.641Z,5.47
2022-08-19T02:21:22.042Z,5.67
2022-08-19T02:24:25.742Z,6.20
2022-08-19T02:27:30.767Z,5.10
2022-08-19T02:30:34.713Z,5.70
2022-08-19T02:33:38.436Z,5.70
2022-08-19T02:36:42.701Z,5.53
2022-08-19T02:39:45.454Z,6.23
2022-08-19T02:42:50.662Z,5.23
2022-08-19T02:45:55.074Z,5.67
2022-08-19T02:49:03.984Z,5.50
2022-08-19T02:52:07.754Z,5.87
2022-08-19T02:55:11.520Z,5.57
2022-08-19T02:58:17.951Z,5.40
2022-08-19T03:01:27.180Z,5.77
2022-08-19T03:04:31.524Z,5.43
2022-08-19T03:07:35.303Z,5.50
2022-08-19T03:10:44.998Z,5.50
2022-08-19T03:13:51.774Z,5.50
2022-08-19T03:16:55.546Z,5.63
2022-08-19T03:19:59.506Z,5.00
2022-08-19T03:23:03.295Z,5.30
2022-08-19T03:26:15.966Z,5.33
2022-08-19T03:29:30.678Z,5.27
2022-08-19T03:32:34.898Z,5.20
2022-08-19T03:35:38.708Z,5.20
2022-08-19T03:38:46.078Z,5.30
2022-08-19T03:42:29.243Z,5.57
2022-08-19T03:45:17.367Z,5.13
2022-08-19T03:48:21.078Z,5.17
2022-08-19T03:51:30.738Z,5.23
2022-08-19T03:54:35.212Z,5.20
2022-08-19T03:57:38.942Z,5.33
2022-08-19T04:00:45.547Z,5.37
2022-08-19T04:03:50.282Z,5.80
2022-08-19T04:06:54.564Z,4.93
2022-08-19T04:09:58.263Z,5.27
2022-08-19T04:13:01.949Z,5.20
2022-08-19T04:16:08.288Z,5.57
2022-08-19T04:19:12.289Z,5.07
2022-08-19T04:22:16.335Z,5.60
2022-08-19T04:25:20.062Z,5.30
2022-08-19T04:28:24.800Z,5.20
2022-08-19T04:31:32.446Z,4.93
2022-08-19T04:34:36.126Z,5.40
2022-08-19T04:37:59.794Z,4.77
2022-08-19T04:41:23.045Z,5.20
2022-08-19T04:44:27.502Z,5.40
2022-08-19T04:47:48.123Z,5.33
2022-08-19T04:50:59.550Z,5.40
2022-08-19T04:54:04.723Z,5.20
2022-08-19T04:57:10.935Z,4.80
2022-08-19T05:00:15.483Z,5.10
2022-08-19T05:03:20.706Z,5.13
2022-08-19T05:06:25.846Z,5.20
2022-08-19T05:09:33.110Z,4.87
2022-08-19T05:12:53.947Z,5.10
2022-08-19T05:15:59.490Z,4.90
2022-08-19T05:19:22.274Z,4.77
2022-08-19T05:22:36.644Z,5.20
2022-08-19T05:25:42.083Z,4.73
2022-08-19T05:28:46.043Z,5.27
2022-08-19T05:31:51.484Z,4.90
2022-08-19T05:34:56.836Z,5.33
2022-08-19T05:38:00.546Z,5.00
2022-08-19T05:41:09.467Z,4.77
2022-08-19T05:44:13.188Z,4.93
2022-08-19T05:47:19.814Z,4.90
2022-08-19T05:50:25.161Z,5.13
2022-08-19T05:53:28.902Z,5.10
2022-08-19T05:56:33.219Z,4.60
2022-08-19T05:59:37.408Z,4.70
2022-08-19T06:02:43.659Z,4.93
2022-08-19T06:05:51.651Z,4.97
2022-08-19T06:08:55.962Z,5.13
2022-08-19T06:12:03.503Z,4.73
2022-08-19T06:15:11.230Z,4.93
2022-08-19T06:18:15.575Z,4.83
2022-08-19T06:21:22.040Z,4.90
2022-08-19T06:24:27.653Z,4.77
2022-08-19T06:27:32.931Z,5.30
2022-08-19T06:30:37.986Z,5.00
2022-08-19T06:33:41.903Z,5.27
2022-08-19T06:36:49.753Z,4.43
2022-08-19T06:39:53.755Z,5.00
2022-08-19T06:43:00.045Z,4.80
2022-08-19T06:46:05.220Z,5.20
2022-08-19T06:49:11.252Z,5.17
2022-08-19T06:52:17.001Z,5.30
2022-08-19T06:55:20.820Z,4.93
2022-08-19T06:58:24.528Z,4.90
2022-08-19T07:01:28.943Z,4.80
2022-08-19T07:04:33.750Z,5.00
2022-08-19T07:07:38.879Z,5.23
2022-08-19T07:10:47.803Z,5.20
2022-08-19T07:13:52.177Z,5.23
2022-08-19T07:16:59.083Z,5.83
2022-08-19T07:20:06.768Z,5.40
2022-08-19T07:23:16.227Z,5.57
2022-08-19T07:26:27.817Z,5.43
2022-08-19T07:29:34.028Z,5.30
2022-08-19T07:32:39.169Z,5.27
2022-08-19T07:35:43.091Z,4.90
2022-08-19T07:38:51.570Z,5.50
2022-08-19T07:41:58.660Z,5.60
2022-08-19T07:45:02.463Z,5.57
2022-08-19T07:48:06.566Z,7.10
2022-08-19T07:51:14.358Z,8.70
2022-08-19T07:54:23.410Z,9.60
2022-08-19T07:57:27.185Z,10.33
2022-08-19T08:00:31.043Z,9.40
2022-08-19T08:03:52.017Z,11.63
2022-08-19T08:07:13.511Z,12.30
2022-08-19T08:10:20.541Z,13.23
2022-08-19T08:13:24.911Z,14.37
2022-08-19T08:16:30.950Z,13.83
2022-08-19T08:19:35.187Z,14.30
2022-08-19T08:22:56.788Z,14.87
2022-08-19T08:26:03.148Z,14.40
2022-08-19T08:29:12.853Z,15.77
2022-08-19T08:32:16.843Z,15.97
2022-08-19T08:35:23.149Z,15.33
2022-08-19T08:38:26.888Z,16.47
2022-08-19T08:41:42.681Z,16.07
2022-08-19T08:48:21.998Z,16.80
2022-08-19T08:51:35.168Z,16.43
2022-08-19T08:54:55.055Z,16.00
2022-08-19T08:58:03.944Z,15.53
2022-08-19T09:01:07.945Z,15.63
2022-08-19T09:04:14.534Z,15.03
2022-08-19T09:07:35.268Z,14.97
2022-08-19T09:10:45.904Z,15.27
2022-08-19T09:14:04.482Z,15.40
2022-08-19T09:17:09.061Z,14.90
2022-08-19T09:20:20.299Z,15.07
2022-08-19T09:23:27.008Z,15.10
2022-08-19T09:26:47.425Z,14.40
2022-08-19T09:29:56.651Z,14.60
2022-08-19T09:33:01.015Z,13.93
2022-08-19T09:36:09.387Z,14.67
2022-08-19T09:39:16.309Z,14.10
2022-08-19T09:42:30.466Z,15.03
2022-08-19T09:45:40.709Z,14.43
2022-08-19T09:48:45.649Z,13.17
2022-08-19T09:51:52.581Z,13.30
2022-08-19T09:54:56.809Z,13.17
2022-08-19T09:58:02.200Z,13.07
2022-08-19T10:01:09.564Z,13.40
2022-08-19T10:04:19.835Z,12.87
2022-08-19T10:07:28.990Z,12.60
2022-08-19T10:10:40.164Z,12.47
2022-08-19T10:13:47.915Z,11.83
2022-08-19T10:16:53.267Z,11.80
2022-08-19T10:19:57.053Z,12.07
2022-08-19T10:23:01.280Z,12.03
2022-08-19T10:26:07.038Z,11.93
2022-08-19T10:29:11.493Z,11.80
2022-08-19T10:32:16.947Z,11.53
2022-08-19T10:35:21.845Z,11.77
2022-08-19T10:38:31.517Z,11.20
2022-08-19T10:41:38.480Z,11.40
2022-08-19T10:44:43.729Z,10.40
2022-08-19T10:47:48.898Z,10.93
2022-08-19T10:51:10.143Z,11.00
2022-08-19T10:54:14.137Z,10.97
2022-08-19T10:57:16.944Z,11.20
2022-08-19T11:00:21.843Z,10.77
2022-08-19T11:03:28.766Z,11.03
2022-08-19T11:06:34.061Z,11.27
2022-08-19T11:09:41.758Z,10.70
2022-08-19T11:12:47.416Z,10.80
2022-08-19T11:16:00.156Z,10.60
2022-08-19T11:19:09.743Z,10.50
2022-08-19T11:22:16.136Z,14.37
2022-08-19T11:25:23.336Z,12.73
2022-08-19T11:28:27.139Z,12.17
2022-08-19T11:31:34.350Z,12.20
2022-08-19T11:34:39.812Z,11.47
2022-08-19T11:37:43.581Z,11.50
2022-08-19T11:40:47.330Z,11.20
2022-08-19T11:43:53.365Z,12.27
2022-08-19T11:46:57.122Z,11.30
2022-08-19T11:50:02.165Z,11.40
2022-08-19T11:53:05.914Z,11.07
2022-08-19T11:56:14.431Z,11.17
2022-08-19T11:59:18.219Z,11.77
2022-08-19T12:02:22.733Z,11.43
2022-08-19T12:05:27.860Z,10.17
2022-08-19T12:08:31.950Z,10.80
2022-08-19T12:11:35.896Z,11.07
2022-08-19T12:14:40.043Z,10.27
2022-08-19T12:17:44.358Z,10.33
2022-08-19T12:20:49.527Z,10.73
2022-08-19T12:23:55.775Z,10.93
2022-08-19T12:27:03.104Z,10.83
2022-08-19T12:30:10.593Z,10.13
2022-08-19T12:33:14.967Z,11.00
2022-08-19T12:36:20.741Z,11.07
2022-08-19T12:39:24.683Z,11.13
2022-08-19T12:42:28.875Z,10.97
2022-08-19T12:45:32.655Z,11.00
2022-08-19T12:48:38.287Z,11.27
2022-08-19T12:51:45.189Z,10.63
2022-08-19T12:54:49.221Z,10.87
2022-08-19T12:57:58.057Z,11.17
2022-08-19T13:01:01.928Z,10.77
2022-08-19T13:04:05.957Z,11.57
2022-08-19T13:07:11.073Z,11.90
2022-08-19T13:10:18.993Z,11.67
2022-08-19T13:13:22.767Z,11.63
2022-08-19T13:16:28.626Z,12.00
2022-08-19T13:19:32.624Z,12.20
2022-08-19T13:22:37.972Z,11.93
2022-08-19T13:25:41.728Z,13.03
2022-08-19T13:29:04.815Z,12.17
2022-08-19T13:32:26.455Z,13.33
2022-08-19T13:35:30.267Z,12.67
2022-08-19T13:38:36.033Z,12.73
2022-08-19T13:41:46.526Z,12.27
2022-08-19T13:44:50.344Z,12.47
2022-08-19T13:47:59.515Z,12.10
2022-08-19T13:51:07.292Z,12.80
2022-08-19T13:54:13.348Z,13.43
2022-08-19T13:57:17.123Z,12.93
2022-08-19T14:00:21.829Z,13.13
2022-08-19T14:03:25.679Z,13.03
2022-08-19T14:06:29.536Z,12.80
2022-08-19T14:09:34.711Z,12.97
2022-08-19T14:12:38.837Z,13.40
2022-08-19T14:15:42.748Z,12.87
2022-08-19T14:18:47.158Z,12.73
2022-08-19T14:21:50.939Z,12.63
2022-08-19T14:24:56.169Z,12.77
2022-08-19T14:28:00.467Z,13.10
2022-08-19T14:31:04.179Z,12.87
2022-08-19T14:34:08.018Z,12.87
2022-08-19T14:37:13.025Z,12.80
2022-08-19T14:40:22.218Z,12.00
2022-08-19T14:43:25.946Z,12.53
2022-08-19T14:46:30.660Z,12.90
2022-08-19T14:49:35.289Z,12.53
2022-08-19T14:52:48.840Z,12.83
2022-08-19T14:55:54.063Z,13.23
2022-08-19T14:59:00.314Z,12.30
2022-08-19T15:02:33.642Z,12.43
2022-08-19T15:05:30.703Z,13.03
2022-08-19T15:08:37.914Z,12.23
2022-08-19T15:11:44.519Z,12.53
2022-08-19T15:14:51.123Z,12.73
2022-08-19T15:18:03.199Z,13.10
2022-08-19T15:21:08.129Z,12.70
2022-08-19T15:24:12.221Z,13.10
2022-08-19T15:27:17.398Z,12.70
2022-08-19T15:30:24.558Z,12.13
2022-08-19T15:33:28.488Z,12.30
2022-08-19T15:36:32.614Z,12.77
2022-08-19T15:39:37.051Z,12.60
2022-08-19T15:42:43.614Z,11.77
2022-08-19T15:45:49.406Z,12.40
2022-08-19T15:48:57.222Z,11.97
2022-08-19T15:52:03.881Z,12.63
2022-08-19T15:55:08.479Z,12.80
2022-08-19T15:58:38.531Z,11.77
2022-08-19T16:01:59.629Z,12.40
2022-08-19T16:05:21.381Z,12.80
2022-08-19T16:08:25.308Z,12.20
2022-08-19T16:11:31.400Z,12.10
2022-08-19T16:14:38.153Z,11.80
2022-08-19T16:17:42.358Z,11.87
2022-08-19T16:20:46.693Z,11.67
2022-08-19T16:23:51.215Z,11.70
2022-08-19T16:26:56.012Z,12.67
2022-08-19T16:30:01.348Z,11.97
2022-08-19T16:33:05.424Z,12.47
2022-08-19T16:36:10.253Z,11.77
2022-08-19T16:39:16.751Z,12.10
2022-08-19T16:42:20.887Z,12.60
2022-08-19T16:45:26.523Z,12.40
2022-08-19T16:48:32.918Z,12.50
2022-08-19T16:51:36.792Z,12.30
2022-08-19T16:54:40.644Z,12.00
2022-08-19T16:57:47.219Z,12.17
2022-08-19T17:00:53.432Z,12.00
2022-08-19T17:03:58.497Z,11.70
2022-08-19T17:07:03.261Z,11.93
2022-08-19T17:10:07.862Z,11.50
2022-08-19T17:13:11.745Z,12.10
2022-08-19T17:16:17.557Z,12.23
2022-08-19T17:19:21.315Z,11.10
2022-08-19T17:22:25.206Z,11.30
2022-08-19T17:25:31.584Z,11.10
2022-08-19T17:28:35.510Z,11.70
2022-08-19T17:31:40.760Z,11.63
2022-08-19T17:34:44.982Z,11.87
2022-08-19T17:37:51.549Z,11.67
2022-08-19T17:40:58.291Z,12.07
2022-08-19T17:44:03.779Z,11.00
2022-08-19T17:47:09.280Z,10.60
2022-08-19T17:50:14.133Z,10.77
2022-08-19T17:53:17.923Z,10.63
2022-08-19T17:56:22.178Z,11.03
2022-08-19T17:59:28.500Z,11.23
2022-08-19T18:02:35.645Z,10.43
2022-08-19T18:05:43.484Z,10.60
2022-08-19T18:08:49.083Z,10.20
2022-08-19T18:11:55.020Z,11.07
2022-08-19T18:15:00.249Z,10.80
2022-08-19T18:18:15.016Z,10.47
2022-08-19T18:21:19.869Z,10.53
2022-08-19T18:24:23.784Z,10.53
2022-08-19T18:27:28.856Z,10.20
2022-08-19T18:30:34.392Z,10.80
2022-08-19T18:33:44.234Z,10.20
2022-08-19T18:36:53.887Z,10.30
2022-08-19T18:40:15.673Z,10.47
2022-08-19T18:43:37.136Z,9.40
2022-08-19T18:46:58.750Z,9.53
2022-08-19T18:50:08.363Z,10.37
2022-08-19T18:53:16.222Z,9.67
2022-08-19T18:56:23.938Z,10.07
2022-08-19T18:59:29.637Z,9.47
2022-08-19T19:02:39.669Z,9.87
2022-08-19T19:05:45.429Z,9.70
2022-08-19T19:08:50.266Z,10.47
2022-08-19T19:11:56.538Z,10.00
2022-08-19T19:15:05.557Z,9.63
2022-08-19T19:18:09.342Z,9.87
2022-08-19T19:21:14.532Z,9.67
2022-08-19T19:24:21.527Z,9.40
2022-08-19T19:27:25.346Z,9.60
2022-08-19T19:30:30.873Z,9.13
2022-08-19T19:33:34.615Z,9.30
2022-08-19T19:36:40.126Z,9.27
2022-08-19T19:39:46.138Z,9.70
2022-08-19T19:42:51.969Z,9.40
2022-08-19T19:45:55.640Z,9.43
2022-08-19T19:49:00.308Z,9.47
2022-08-19T19:52:07.629Z,9.37
2022-08-19T19:55:18.950Z,9.87
2022-08-19T19:58:28.495Z,9.10
2022-08-19T20:01:32.899Z,9.10
2022-08-19T20:04:37.501Z,9.40
2022-08-19T20:08:00.388Z,9.40
2022-08-19T20:11:07.545Z,9.33
2022-08-19T20:14:14.555Z,9.67
2022-08-19T20:17:20.684Z,9.80
2022-08-19T20:20:24.929Z,8.83
2022-08-19T20:23:31.148Z,9.03
2022-08-19T20:26:35.815Z,9.70
2022-08-19T20:29:41.733Z,9.27
2022-08-19T20:32:50.036Z,9.30
2022-08-19T20:35:54.260Z,8.77
2022-08-19T20:38:59.699Z,9.37
2022-08-19T20:42:03.480Z,9.83
2022-08-19T20:45:18.187Z,8.87
2022-08-19T20:48:32.656Z,9.17
2022-08-19T20:51:36.579Z,9.33
2022-08-19T20:54:41.796Z,8.90
2022-08-19T20:57:46.731Z,9.50
2022-08-19T21:00:51.467Z,9.13
2022-08-19T21:03:55.305Z,8.53
2022-08-19T21:06:59.133Z,8.70
2022-08-19T21:10:05.261Z,8.70
2022-08-19T21:13:09.173Z,8.63
2022-08-19T21:16:12.963Z,8.83
2022-08-19T21:19:19.871Z,8.60
2022-08-19T21:22:25.833Z,9.07
2022-08-19T21:25:31.546Z,8.20
2022-08-19T21:28:36.490Z,9.20
2022-08-19T21:31:41.060Z,8.93
2022-08-19T21:34:47.025Z,8.53
2022-08-19T21:37:51.492Z,8.80
2022-08-19T21:40:57.433Z,8.83
2022-08-19T21:44:02.019Z,8.53
2022-08-19T21:47:07.274Z,8.83
2022-08-19T21:50:15.121Z,8.13
2022-08-19T21:53:22.865Z,8.13
2022-08-19T21:56:28.797Z,8.30
2022-08-19T21:59:33.121Z,8.70
2022-08-19T22:02:38.420Z,8.90
2022-08-19T22:05:43.672Z,8.50
2022-08-19T22:08:47.836Z,8.13
2022-08-19T22:11:53.014Z,8.20
2022-08-19T22:14:57.894Z,8.67
2022-08-19T22:18:02.345Z,7.73
2022-08-19T22:21:11.245Z,7.73
2022-08-19T22:24:17.382Z,8.03
2022-08-19T22:27:23.375Z,8.60
2022-08-19T22:30:28.010Z,8.13
2022-08-19T22:33:38.663Z,8.43
2022-08-19T22:36:43.357Z,8.30
2022-08-19T22:39:48.179Z,7.73
2022-08-19T22:43:02.332Z,8.30
2022-08-19T22:46:17.607Z,8.70
2022-08-19T22:49:22.368Z,7.70
2022-08-19T22:52:28.110Z,8.00
2022-08-19T22:55:32.913Z,8.10
2022-08-19T22:58:40.761Z,7.50
2022-08-19T23:01:46.300Z,7.83
2022-08-19T23:04:50.414Z,8.30
2022-08-19T23:07:58.794Z,7.97
2022-08-19T23:11:03.716Z,8.10
2022-08-19T23:14:09.469Z,7.70
2022-08-19T23:17:14.124Z,7.67
2022-08-19T23:20:19.622Z,7.80
2022-08-19T23:23:24.913Z,7.47
2022-08-19T23:26:35.199Z,8.20
2022-08-19T23:29:58.475Z,8.03
2022-08-19T23:33:12.682Z,8.00
2022-08-19T23:36:18.815Z,7.70
2022-08-19T23:39:23.449Z,7.90
2022-08-19T23:42:28.834Z,7.77
2022-08-19T23:45:34.542Z,7.70
2022-08-19T23:48:39.782Z,7.63
2022-08-19T23:51:45.786Z,7.50
2022-08-19T23:54:50.376Z,7.20
2022-08-19T23:57:54.359Z,7.43
